Time;durP1;ratioP1;P1;durP2;ratioP2;P2;SDS_P1;SDS_P2;PMS_P1;PMS_P2;Temp;Humidity;BMP_temperature;BMP_pressure;BME280_temperature;BME280_humidity;BME280_pressure;Samples;Min_cycle;Max_cycle;Signal;HPM_P1;HPM_P2
2023/03/16 06:19:43;;;;;;;;;;;;;;;7.88;47.40;97021.81;4225380;27;10389;-70
2023/03/16 06:21:46;;;;;;;;;;;;;;;8.16;47.13;97027.47;4217564;28;5694;-70
2023/03/16 06:23:50;;;;;;;;;;;;;;;8.37;46.98;97024.22;4207582;28;5627;-70
2023/03/16 06:25:54;;;;;;;;;;;;;;;8.56;47.09;97025.59;4214735;28;5795;-70
2023/03/16 06:27:57;;;;;;;;;;;;;;;8.69;46.91;97025.03;4216782;28;5694;-70
2023/03/16 06:30:00;;;;;;;;;;;;;;;8.79;46.76;97022.16;4211427;28;5624;-70
2023/03/16 06:32:04;;;;;;;;;;;;;;;8.84;46.78;97018.00;4214112;28;5715;-70
2023/03/16 06:34:07;;;;;;;;;;;;;;;8.92;46.67;97020.56;4216193;28;5780;-70
2023/03/16 06:36:12;;;;;;;;;;;;;;;9.03;46.53;97019.31;4214715;28;5695;-70
2023/03/16 06:38:15;;;;;;;;;;;;;;;9.10;46.43;97022.91;4214518;28;5690;-69
2023/03/16 06:40:18;;;;;;;;;;;;;;;9.17;46.43;97018.53;4214289;28;5758;-71
2023/03/16 06:42:22;;;;;;;;;;;;;;;9.21;46.19;97025.09;4214458;28;5815;-70
2023/03/16 06:44:25;;;;;;;;;;;;;;;9.26;46.06;97028.00;4214800;28;5815;-73
2023/03/16 06:46:28;;;;;;;;;;;;;;;9.34;45.95;97027.94;4218741;28;5720;-74
2023/03/16 06:48:31;;;;;;;;;;;;;;;9.42;46.29;97031.53;4224395;28;5789;-74
2023/03/16 06:50:34;;;;;;;;;;;;;;;9.48;45.92;97028.16;4214162;28;5707;-75
2023/03/16 06:52:38;;;;;;;;;;;;;;;9.49;46.20;97032.41;4214916;28;5714;-74
2023/03/16 06:54:41;;;;;;;;;;;;;;;9.53;45.73;97028.44;4218406;28;5787;-74
2023/03/16 06:56:44;;;;;;;;;;;;;;;9.55;45.59;97024.63;4212979;28;5715;-74
2023/03/16 06:58:48;;;;;;;;;;;;;;;9.60;45.84;97018.78;4214324;28;5758;-74
2023/03/16 07:00:52;;;;;;;;;;;;;;;9.67;45.74;97018.88;4214279;28;5682;-73
2023/03/16 07:02:55;;;;;;;;;;;;;;;9.68;45.62;97034.53;4212748;28;5681;-74
2023/03/16 07:05:02;;;;;;;;;;;;;;;9.68;45.39;97031.09;4199420;28;5800;-75
2023/03/16 07:07:05;;;;;;;;;;;;;;;9.76;45.48;97028.38;4213940;28;5689;-75
2023/03/16 07:09:11;;;;;;;;;;;;;;;9.79;45.47;97023.53;4214005;28;5904;-77
2023/03/16 07:11:14;;;;;;;;;;;;;;;9.79;45.30;97023.53;4214844;28;5830;-77
2023/03/16 07:13:17;;;;;;;;;;;;;;;9.77;45.17;97030.81;4214261;28;5686;-75
2023/03/16 07:15:20;;;;;;;;;;;;;;;9.80;45.00;97025.16;4214406;28;5690;-74
2023/03/16 07:17:23;;;;;;;;;;;;;;;9.80;45.12;97025.16;4214655;28;5678;-74
2023/03/16 07:19:26;;;;;;;;;;;;;;;9.84;45.13;97026.44;4209979;28;5703;-75
2023/03/16 07:21:30;;;;;;;;;;;;;;;9.82;45.12;97025.78;4202049;28;5798;-74
2023/03/16 07:23:33;;;;;;;;;;;;;;;9.80;45.11;97014.59;4203479;28;5074;-76
2023/03/16 07:25:38;;;;;;;;;;;;;;;9.84;45.19;97013.22;4202737;28;5694;-75
2023/03/16 07:27:42;;;;;;;;;;;;;;;9.88;44.84;97016.34;4186737;28;5718;-75
2023/03/16 07:29:45;;;;;;;;;;;;;;;9.88;44.99;97008.41;4195756;28;5691;-76
2023/03/16 07:31:48;;;;;;;;;;;;;;;9.89;44.73;97012.69;4202981;28;5706;-76
2023/03/16 07:33:51;;;;;;;;;;;;;;;9.91;44.72;97016.78;4203426;28;6545;-75
2023/03/16 07:35:54;;;;;;;;;;;;;;;9.93;44.84;97014.78;4202900;28;5725;-73
2023/03/16 07:37:57;;;;;;;;;;;;;;;9.92;44.80;97023.69;4202194;28;5761;-73
2023/03/16 07:40:02;;;;;;;;;;;;;;;9.93;44.62;97019.22;4202250;28;5706;-73
2023/03/16 07:42:07;;;;;;;;;;;;;;;9.90;44.64;97015.16;4202588;28;5722;-76
2023/03/16 07:44:13;;;;;;;;;;;;;;;9.90;44.79;97014.31;4202999;28;5886;-75
2023/03/16 07:46:16;;;;;;;;;;;;;;;9.89;44.70;97017.97;4202454;28;5718;-75
2023/03/16 07:48:19;;;;;;;;;;;;;;;9.88;44.96;97009.22;4202698;28;5808;-74
2023/03/16 07:50:22;;;;;;;;;;;;;;;9.88;44.95;97006.59;4203068;28;6395;-74
2023/03/16 07:52:25;;;;;;;;;;;;;;;9.96;44.76;97007.47;4202506;28;5695;-73
2023/03/16 07:54:28;;;;;;;;;;;;;;;9.99;44.86;97012.41;4202580;28;5791;-74
2023/03/16 07:56:31;;;;;;;;;;;;;;;9.98;44.68;97010.78;4202462;28;5710;-76
2023/03/16 07:58:51;;;;;;;;;;;;;;;9.99;45.12;97015.06;4202352;28;5813;-74
2023/03/16 08:00:56;;;;;;;;;;;;;;;10.04;44.83;97021.41;4202456;28;5703;-75
2023/03/16 08:03:00;;;;;;;;;;;;;;;10.05;44.90;97015.13;4202479;28;5878;-74
2023/03/16 08:05:04;;;;;;;;;;;;;;;10.07;44.96;97010.47;4202310;28;5691;-74
2023/03/16 08:07:06;;;;;;;;;;;;;;;10.08;44.91;97012.13;4202382;28;5722;-73
2023/03/16 08:09:10;;;;;;;;;;;;;;;10.11;44.79;97011.75;4201623;28;5687;-74
2023/03/16 08:11:13;;;;;;;;;;;;;;;10.15;44.66;97020.13;4202248;28;5682;-74
2023/03/16 08:13:16;;;;;;;;;;;;;;;10.17;44.84;97018.09;4202274;28;5710;-73
2023/03/16 08:15:21;;;;;;;;;;;;;;;10.19;45.09;97026.66;4202221;28;5777;-74
2023/03/16 08:17:26;;;;;;;;;;;;;;;10.24;44.77;97026.97;4202071;28;6592;-75
2023/03/16 08:19:29;;;;;;;;;;;;;;;10.26;44.85;97024.97;4201892;28;5796;-73
2023/03/16 08:21:32;;;;;;;;;;;;;;;10.30;44.83;97018.28;4192678;28;5636;-73
2023/03/16 08:23:39;;;;;;;;;;;;;;;10.28;44.86;97024.78;4202422;28;5752;-74
2023/03/16 08:25:42;;;;;;;;;;;;;;;10.26;44.92;97030.25;4193700;28;5698;-74
2023/03/16 08:27:46;;;;;;;;;;;;;;;10.29;44.71;97024.59;4201725;28;5687;-73
2023/03/16 08:29:52;;;;;;;;;;;;;;;10.33;44.76;97035.63;4201810;28;5686;-74
2023/03/16 08:31:56;;;;;;;;;;;;;;;10.35;44.60;97028.31;4200893;28;5682;-76
2023/03/16 08:33:59;;;;;;;;;;;;;;;10.35;44.35;97030.97;4201810;28;5939;-74
2023/03/16 08:36:02;;;;;;;;;;;;;;;10.32;44.62;97031.34;4201967;28;5964;-76
2023/03/16 08:38:05;;;;;;;;;;;;;;;10.31;44.65;97029.72;4201526;28;5838;-74
2023/03/16 08:40:12;;;;;;;;;;;;;;;10.33;44.74;97025.88;4201607;28;5785;-73
2023/03/16 08:42:16;;;;;;;;;;;;;;;10.41;44.54;97022.28;4201714;28;5691;-73
2023/03/16 08:44:20;;;;;;;;;;;;;;;10.44;44.51;97022.75;4201837;28;5686;-74
2023/03/16 08:46:23;;;;;;;;;;;;;;;10.47;44.49;97021.56;4201656;28;5690;-74
2023/03/16 08:48:27;;;;;;;;;;;;;;;10.45;44.33;97020.91;4201596;28;5691;-73
2023/03/16 08:50:30;;;;;;;;;;;;;;;10.49;44.37;97017.72;4201545;28;5679;-73
2023/03/16 08:52:35;;;;;;;;;;;;;;;10.51;44.48;97012.22;4201584;28;5711;-73
2023/03/16 08:54:38;;;;;;;;;;;;;;;10.55;44.36;97007.41;4201192;28;5836;-73
2023/03/16 08:56:41;;;;;;;;;;;;;;;10.64;44.45;97006.25;4193458;28;5807;-73
2023/03/16 08:58:44;;;;;;;;;;;;;;;10.68;44.37;96999.59;4201461;28;5910;-73
2023/03/16 09:00:47;;;;;;;;;;;;;;;10.73;43.98;96999.84;4201135;28;5690;-73
2023/03/16 09:02:53;;;;;;;;;;;;;;;10.73;44.00;96999.84;4201207;28;5797;-73
2023/03/16 09:04:57;;;;;;;;;;;;;;;10.73;44.30;96999.84;4201305;28;5789;-73
2023/03/16 09:07:00;;;;;;;;;;;;;;;10.76;43.81;96999.50;4201203;28;6391;-73
2023/03/16 09:09:11;;;;;;;;;;;;;;;10.79;44.05;97004.38;4200909;28;5698;-73
2023/03/16 09:11:16;;;;;;;;;;;;;;;10.82;44.20;97004.00;4201839;28;5699;-73
2023/03/16 09:13:19;;;;;;;;;;;;;;;10.79;44.26;97009.69;4201348;28;5787;-73
2023/03/16 09:15:22;;;;;;;;;;;;;;;10.77;43.81;97006.41;4201351;28;5706;-73
2023/03/16 09:17:25;;;;;;;;;;;;;;;10.76;44.09;97016.16;4201191;28;5690;-72
2023/03/16 09:19:30;;;;;;;;;;;;;;;10.82;43.91;97014.59;4200683;28;5813;-72
2023/03/16 09:21:53;;;;;;;;;;;;;;;10.85;43.91;97011.56;4194443;28;5819;-73
2023/03/16 09:23:56;;;;;;;;;;;;;;;10.83;43.82;97010.94;4201029;28;5721;-73
2023/03/16 09:26:01;;;;;;;;;;;;;;;10.88;43.98;97013.84;4200962;28;5777;-73
2023/03/16 09:28:05;;;;;;;;;;;;;;;10.92;43.85;97003.69;4200906;28;5699;-73
2023/03/16 09:30:12;;;;;;;;;;;;;;;10.93;43.89;97003.50;4200860;28;6385;-73
2023/03/16 09:32:15;;;;;;;;;;;;;;;10.96;43.72;96995.16;4200813;28;5687;-72
2023/03/16 09:34:18;;;;;;;;;;;;;;;10.99;44.08;96986.88;4200755;28;5703;-74
2023/03/16 09:36:21;;;;;;;;;;;;;;;11.01;43.68;96984.03;4200930;28;5701;-74
2023/03/16 09:38:26;;;;;;;;;;;;;;;11.02;43.87;96989.13;4200510;28;5756;-73
2023/03/16 09:40:30;;;;;;;;;;;;;;;11.02;43.98;96994.44;4200627;28;5794;-73
2023/03/16 09:42:37;;;;;;;;;;;;;;;11.01;43.75;96989.31;4200597;28;5847;-73
2023/03/16 09:44:52;;;;;;;;;;;;;;;11.00;44.10;96996.44;4200820;28;5699;-73
2023/03/16 09:46:59;;;;;;;;;;;;;;;10.98;43.82;96992.34;4186321;28;5728;-73
2023/03/16 09:49:03;;;;;;;;;;;;;;;11.00;43.91;96972.63;4200889;28;5703;-73
2023/03/16 09:51:14;;;;;;;;;;;;;;;11.04;43.90;96979.16;4200428;28;5679;-74
2023/03/16 09:53:25;;;;;;;;;;;;;;;11.08;43.93;96976.94;4201073;28;5682;-73
2023/03/16 09:55:32;;;;;;;;;;;;;;;11.12;43.81;96972.13;4200682;28;5836;-72
2023/03/16 09:57:39;;;;;;;;;;;;;;;11.12;43.68;96967.66;4200619;28;5706;-73
2023/03/16 09:59:42;;;;;;;;;;;;;;;11.16;43.72;96973.34;4184236;28;5707;-73
2023/03/16 10:01:58;;;;;;;;;;;;;;;11.16;43.67;96973.34;4192912;28;6483;-73
2023/03/16 10:04:15;;;;;;;;;;;;;;;11.18;43.80;96973.97;4200656;28;5683;-73
2023/03/16 10:06:19;;;;;;;;;;;;;;;11.21;43.59;96976.22;4200816;28;5885;-73
2023/03/16 10:08:24;;;;;;;;;;;;;;;11.17;43.69;96972.34;4200529;28;5724;-73
2023/03/16 10:10:45;;;;;;;;;;;;;;;11.15;43.81;96967.25;4200307;28;5772;-73
2023/03/16 10:12:52;;;;;;;;;;;;;;;11.19;43.74;96960.56;4185214;28;5723;-73
2023/03/16 10:14:58;;;;;;;;;;;;;;;11.23;43.63;96964.47;4200485;28;5682;-73
2023/03/16 10:17:05;;;;;;;;;;;;;;;11.27;43.54;96964.88;4200433;28;5682;-73
2023/03/16 10:19:13;;;;;;;;;;;;;;;11.30;43.63;96964.50;4200214;28;5689;-73
2023/03/16 10:21:18;;;;;;;;;;;;;;;11.29;43.46;96957.56;4200486;28;6386;-73
2023/03/16 10:23:23;;;;;;;;;;;;;;;11.30;43.54;96961.84;4200674;28;5754;-73
2023/03/16 10:25:35;;;;;;;;;;;;;;;11.30;43.73;96960.03;4199564;28;5823;-73
2023/03/16 10:27:40;;;;;;;;;;;;;;;11.34;43.58;96965.75;4200510;28;5682;-73
2023/03/16 10:29:43;;;;;;;;;;;;;;;11.37;43.84;96947.66;4200559;28;5753;-73
2023/03/16 10:31:47;;;;;;;;;;;;;;;11.40;43.52;96953.56;4200420;28;5691;-73
2023/03/16 10:33:55;;;;;;;;;;;;;;;11.43;43.60;96954.00;4200430;28;5806;-73
2023/03/16 10:36:02;;;;;;;;;;;;;;;11.45;43.20;96962.59;4200300;28;5689;-73
2023/03/16 10:38:07;;;;;;;;;;;;;;;11.45;43.24;96959.94;4200462;28;5687;-73
2023/03/16 10:40:12;;;;;;;;;;;;;;;11.46;43.42;96964.22;4190498;28;5635;-73
2023/03/16 10:42:19;;;;;;;;;;;;;;;11.46;43.18;96973.97;4200336;28;5699;-74
2023/03/16 10:44:25;;;;;;;;;;;;;;;11.46;43.16;96966.03;4200643;28;5682;-73
2023/03/16 10:46:29;;;;;;;;;;;;;;;11.46;43.08;96961.56;4199970;28;5819;-72
2023/03/16 10:48:41;;;;;;;;;;;;;;;11.42;43.18;96968.25;4200221;28;5927;-73
2023/03/16 10:50:50;;;;;;;;;;;;;;;11.39;43.33;96971.28;4184199;28;5857;-74
2023/03/16 10:52:55;;;;;;;;;;;;;;;11.43;43.06;96977.81;4200530;28;5123;-73
2023/03/16 10:55:07;;;;;;;;;;;;;;;11.45;43.04;96972.34;4201393;28;5691;-74
2023/03/16 10:57:15;;;;;;;;;;;;;;;11.47;43.21;96968.50;4203343;28;5814;-73
2023/03/16 10:59:29;;;;;;;;;;;;;;;11.47;43.22;96970.31;4203172;28;5722;-74
2023/03/16 11:01:32;;;;;;;;;;;;;;;11.45;42.82;96970.53;4203332;28;5718;-73
2023/03/16 11:03:40;;;;;;;;;;;;;;;11.42;42.93;96972.72;4203448;28;5687;-74
2023/03/16 11:05:43;;;;;;;;;;;;;;;11.44;42.89;96970.69;4203201;28;5698;-73
2023/03/16 11:07:51;;;;;;;;;;;;;;;11.50;42.94;96972.56;4202844;28;5714;-73
2023/03/16 11:09:57;;;;;;;;;;;;;;;11.53;42.90;96967.69;4203139;28;5817;-73
2023/03/16 11:12:12;;;;;;;;;;;;;;;11.56;42.87;96962.03;4203049;28;5698;-73
2023/03/16 11:14:19;;;;;;;;;;;;;;;11.57;42.66;96963.66;4203309;28;5840;-73
2023/03/16 11:16:31;;;;;;;;;;;;;;;11.60;42.44;96959.81;4202930;28;7815;-73
2023/03/16 11:18:38;;;;;;;;;;;;;;;11.65;42.50;96960.03;4202934;28;5690;-73
2023/03/16 11:20:41;;;;;;;;;;;;;;;11.70;42.51;96959.47;4186575;28;5719;-73
2023/03/16 11:22:47;;;;;;;;;;;;;;;11.70;42.66;96954.97;4202786;28;6395;-73
2023/03/16 11:24:55;;;;;;;;;;;;;;;11.70;42.33;96967.41;4202611;28;5690;-74
2023/03/16 11:27:02;;;;;;;;;;;;;;;11.69;42.54;96958.63;4202560;28;5761;-72
2023/03/16 11:29:12;;;;;;;;;;;;;;;11.62;42.67;96958.59;4202712;28;5822;-73
2023/03/16 11:31:23;;;;;;;;;;;;;;;11.64;42.34;96959.22;4202627;28;5670;-72
2023/03/16 11:33:29;;;;;;;;;;;;;;;11.59;42.20;96959.00;4203189;28;5698;-73
2023/03/16 11:35:44;;;;;;;;;;;;;;;11.55;42.26;96952.47;4203096;28;5678;-73
2023/03/16 11:38:11;;;;;;;;;;;;;;;11.49;42.05;96957.69;4202511;28;5706;-72
2023/03/16 11:40:27;;;;;;;;;;;;;;;11.47;42.32;96959.75;4202447;28;5074;-73
2023/03/16 11:42:37;;;;;;;;;;;;;;;11.44;42.16;96955.66;4202393;28;5713;-73
2023/03/16 11:44:49;;;;;;;;;;;;;;;11.41;41.95;96960.50;4202422;28;5899;-72
2023/03/16 11:46:56;;;;;;;;;;;;;;;11.37;42.37;96952.94;4196173;28;5699;-74
2023/03/16 11:49:21;;;;;;;;;;;;;;;11.40;42.08;96957.03;4202505;28;5770;-73
2023/03/16 11:51:43;;;;;;;;;;;;;;;11.36;41.97;96959.25;4202763;28;5685;-73
2023/03/16 11:53:51;;;;;;;;;;;;;;;11.38;41.82;96951.13;4202362;28;5816;-73
2023/03/16 11:56:06;;;;;;;;;;;;;;;11.42;42.10;96941.75;4201937;28;5703;-73
2023/03/16 11:58:28;;;;;;;;;;;;;;;11.51;41.72;96948.53;4202421;28;6197;-72
2023/03/16 12:00:42;;;;;;;;;;;;;;;11.56;41.77;96958.56;4202327;28;5714;-73
2023/03/16 12:03:02;;;;;;;;;;;;;;;11.61;41.52;96953.50;4194658;28;6439;-73
2023/03/16 12:05:31;;;;;;;;;;;;;;;11.65;41.47;96944.94;4202316;28;5805;-73
2023/03/16 12:07:44;;;;;;;;;;;;;;;11.69;41.50;96942.75;4202191;28;5764;-73
2023/03/16 12:10:17;;;;;;;;;;;;;;;11.68;41.26;96942.94;4201710;28;5809;-73
2023/03/16 12:12:34;;;;;;;;;;;;;;;11.72;41.47;96944.19;4201788;28;5827;-74
2023/03/16 12:14:41;;;;;;;;;;;;;;;11.73;41.56;96932.56;4201976;28;5702;-73
2023/03/16 12:16:49;;;;;;;;;;;;;;;11.73;41.59;96927.28;4194435;28;5815;-74
2023/03/16 12:18:58;;;;;;;;;;;;;;;11.70;41.36;96928.50;4199100;28;5632;-73
2023/03/16 12:21:07;;;;;;;;;;;;;;;11.72;41.20;96933.59;4188500;28;5706;-73
2023/03/16 12:23:14;;;;;;;;;;;;;;;11.71;41.27;96924.00;4201879;28;5753;-74
2023/03/16 12:25:21;;;;;;;;;;;;;;;11.71;41.23;96929.31;4201565;28;5699;-73
2023/03/16 12:27:26;;;;;;;;;;;;;;;11.73;40.81;96932.56;4202077;28;5686;-73
2023/03/16 12:29:36;;;;;;;;;;;;;;;11.71;41.30;96926.66;4201981;28;5793;-72
2023/03/16 12:31:46;;;;;;;;;;;;;;;11.73;41.01;96922.78;4201995;28;5691;-73
2023/03/16 12:34:10;;;;;;;;;;;;;;;11.79;41.23;96921.22;4201826;28;5752;-73
2023/03/16 12:36:37;;;;;;;;;;;;;;;11.84;40.99;96909.03;4201890;28;5698;-72
2023/03/16 12:38:49;;;;;;;;;;;;;;;11.89;40.64;96916.34;4193336;28;6060;-73
2023/03/16 12:41:03;;;;;;;;;;;;;;;11.91;41.04;96909.06;4198730;28;5712;-72
2023/03/16 12:43:31;;;;;;;;;;;;;;;11.93;40.84;96912.31;4196969;28;7007;-72
2023/03/16 12:45:43;;;;;;;;;;;;;;;11.95;41.00;96910.28;4201872;28;5797;-74
2023/03/16 12:47:58;;;;;;;;;;;;;;;11.98;41.03;96903.75;4201436;28;5694;-73
2023/03/16 12:50:06;;;;;;;;;;;;;;;12.01;40.92;96901.56;4201580;28;6383;-74
2023/03/16 12:52:13;;;;;;;;;;;;;;;12.02;40.75;96905.84;4201633;28;5769;-74
2023/03/16 12:54:20;;;;;;;;;;;;;;;12.01;40.39;96893.59;4201136;28;5852;-72
2023/03/16 12:56:29;;;;;;;;;;;;;;;12.03;40.40;96896.88;4201367;28;5698;-74
2023/03/16 12:58:33;;;;;;;;;;;;;;;12.05;40.42;96894.81;4201200;28;6511;-74
2023/03/16 13:00:39;;;;;;;;;;;;;;;12.06;40.48;96890.34;4201178;28;6386;-73
2023/03/16 13:02:44;;;;;;;;;;;;;;;12.09;40.16;96889.94;4191407;28;5703;-73
2023/03/16 13:04:55;;;;;;;;;;;;;;;12.11;40.19;96886.06;4194061;28;5712;-73
2023/03/16 13:07:03;;;;;;;;;;;;;;;12.13;40.03;96886.69;4201235;28;5870;-72
2023/03/16 13:09:10;;;;;;;;;;;;;;;12.12;39.95;96890.38;4201222;28;5693;-74
2023/03/16 13:11:15;;;;;;;;;;;;;;;12.13;39.82;96891.19;4201331;28;5855;-73
2023/03/16 13:13:24;;;;;;;;;;;;;;;12.12;39.94;96887.72;4201454;28;5709;-74
2023/03/16 13:15:30;;;;;;;;;;;;;;;12.14;39.95;96882.22;4201415;28;5678;-74
2023/03/16 13:17:33;;;;;;;;;;;;;;;12.11;39.49;96878.13;4200656;28;5686;-73
2023/03/16 13:19:39;;;;;;;;;;;;;;;12.08;39.72;96870.56;4201116;28;5686;-73
2023/03/16 13:21:42;;;;;;;;;;;;;;;12.13;39.35;96865.50;4201335;28;5695;-73
2023/03/16 13:24:00;;;;;;;;;;;;;;;12.17;39.33;96864.06;4201253;28;6396;-74
2023/03/16 13:26:14;;;;;;;;;;;;;;;12.22;39.56;96858.16;4200942;28;5698;-74
2023/03/16 13:28:17;;;;;;;;;;;;;;;12.30;39.13;96862.47;4200633;28;5691;-73
2023/03/16 13:30:22;;;;;;;;;;;;;;;12.34;39.10;96855.72;4200909;28;5871;-73
2023/03/16 13:32:27;;;;;;;;;;;;;;;12.38;39.27;96867.56;4200835;28;5690;-73
2023/03/16 13:34:32;;;;;;;;;;;;;;;12.42;39.04;96864.31;4201098;28;5809;-73
2023/03/16 13:36:36;;;;;;;;;;;;;;;12.48;38.97;96868.00;4201191;28;5693;-73
2023/03/16 13:38:39;;;;;;;;;;;;;;;12.50;39.17;96860.66;4200580;28;5802;-74
2023/03/16 13:40:46;;;;;;;;;;;;;;;12.52;38.89;96859.41;4200417;28;5824;-74
2023/03/16 13:42:54;;;;;;;;;;;;;;;12.56;38.83;96854.50;4201168;28;5903;-73
2023/03/16 13:44:57;;;;;;;;;;;;;;;12.58;38.65;96855.16;4201444;28;5695;-74
2023/03/16 13:47:06;;;;;;;;;;;;;;;12.59;38.74;96859.44;4200717;28;5702;-74
2023/03/16 13:49:11;;;;;;;;;;;;;;;12.59;38.73;96848.81;4200943;28;5919;-74
2023/03/16 13:51:17;;;;;;;;;;;;;;;12.59;38.63;96848.81;4200765;28;7325;-73
2023/03/16 13:53:23;;;;;;;;;;;;;;;12.58;38.89;96839.25;4200395;28;5702;-73
2023/03/16 13:55:31;;;;;;;;;;;;;;;12.57;39.04;96850.03;4199950;28;5825;-73
2023/03/16 13:57:37;;;;;;;;;;;;;;;12.52;38.75;96856.75;4200677;28;5687;-74
2023/03/16 13:59:43;;;;;;;;;;;;;;;12.50;38.89;96853.50;4200676;28;5702;-73
2023/03/16 14:01:48;;;;;;;;;;;;;;;12.48;38.85;96852.09;4193080;28;5696;-74
2023/03/16 14:03:52;;;;;;;;;;;;;;;12.47;38.83;96853.91;4200502;28;5846;-74
2023/03/16 14:05:57;;;;;;;;;;;;;;;12.47;39.15;96851.28;4200431;28;7813;-74
2023/03/16 14:08:00;;;;;;;;;;;;;;;12.45;39.00;96837.38;4200300;28;5902;-73
2023/03/16 14:10:05;;;;;;;;;;;;;;;12.45;39.03;96839.22;4200486;28;5589;-73
2023/03/16 14:12:13;;;;;;;;;;;;;;;12.46;39.19;96840.88;4200460;28;8139;-73
2023/03/16 14:14:25;;;;;;;;;;;;;;;12.49;39.37;96829.84;4200449;28;5691;-73
2023/03/16 14:16:30;;;;;;;;;;;;;;;12.49;39.12;96827.19;4200432;28;5711;-73
2023/03/16 14:18:36;;;;;;;;;;;;;;;12.50;39.45;96828.81;4200387;28;5079;-73
2023/03/16 14:20:40;;;;;;;;;;;;;;;12.52;39.42;96822.28;4200724;28;5695;-73
2023/03/16 14:22:43;;;;;;;;;;;;;;;12.56;39.26;96827.19;4200704;28;5804;-74
2023/03/16 14:24:53;;;;;;;;;;;;;;;12.56;39.21;96825.34;4199937;28;5857;-73
2023/03/16 14:26:57;;;;;;;;;;;;;;;12.60;39.16;96823.13;4200584;28;5797;-73
2023/03/16 14:29:05;;;;;;;;;;;;;;;12.61;38.96;96833.50;4199010;28;5658;-74
2023/03/16 14:31:12;;;;;;;;;;;;;;;12.65;38.81;96834.72;4203597;28;5800;-73
2023/03/16 14:33:27;;;;;;;;;;;;;;;12.66;38.92;96839.00;4203662;28;5687;-74
2023/03/16 14:35:31;;;;;;;;;;;;;;;12.68;38.75;96841.44;4203711;28;5785;-73
2023/03/16 14:37:36;;;;;;;;;;;;;;;12.69;38.99;96832.50;4203387;28;5694;-73
2023/03/16 14:39:39;;;;;;;;;;;;;;;12.68;38.61;96836.97;4203424;28;5908;-73
2023/03/16 14:41:44;;;;;;;;;;;;;;;12.68;38.94;96831.66;4203792;28;6835;-73
2023/03/16 14:43:49;;;;;;;;;;;;;;;12.67;38.84;96824.72;4203699;28;5846;-74
2023/03/16 14:45:52;;;;;;;;;;;;;;;12.72;38.65;96819.63;4203841;28;6710;-73
2023/03/16 14:48:03;;;;;;;;;;;;;;;12.77;38.86;96824.31;4203460;28;6702;-73
2023/03/16 14:50:13;;;;;;;;;;;;;;;12.79;38.88;96815.13;4203967;28;6393;-73
2023/03/16 14:52:24;;;;;;;;;;;;;;;12.83;38.90;96813.69;4203521;28;5699;-74
2023/03/16 14:54:27;;;;;;;;;;;;;;;12.83;38.67;96813.69;4203491;28;5759;-74
2023/03/16 14:56:34;;;;;;;;;;;;;;;12.85;38.97;96804.72;4203874;28;6055;-74
2023/03/16 14:58:37;;;;;;;;;;;;;;;12.85;38.72;96805.53;4203649;28;5784;-74
2023/03/16 15:00:42;;;;;;;;;;;;;;;12.86;38.93;96814.31;4203449;28;5809;-75
2023/03/16 15:03:01;;;;;;;;;;;;;;;12.87;38.97;96807.97;4203172;28;5794;-73
2023/03/16 15:05:05;;;;;;;;;;;;;;;12.87;38.75;96805.31;4203484;28;5867;-73
2023/03/16 15:07:22;;;;;;;;;;;;;;;12.84;38.98;96809.22;4203025;28;5691;-74
2023/03/16 15:09:35;;;;;;;;;;;;;;;12.78;38.69;96805.53;4202624;28;5818;-73
2023/03/16 15:11:38;;;;;;;;;;;;;;;12.79;38.89;96807.16;4203145;28;5798;-73
2023/03/16 15:14:02;;;;;;;;;;;;;;;12.78;38.75;96810.84;4194671;28;5694;-73
2023/03/16 15:16:06;;;;;;;;;;;;;;;12.79;38.69;96809.00;4203163;28;5693;-73
2023/03/16 15:18:09;;;;;;;;;;;;;;;12.81;38.68;96794.53;4202627;28;5675;-73
2023/03/16 15:20:14;;;;;;;;;;;;;;;12.81;38.41;96788.41;4203192;28;5678;-74
2023/03/16 15:22:27;;;;;;;;;;;;;;;12.82;38.59;96784.72;4197682;28;5838;-72
2023/03/16 15:24:32;;;;;;;;;;;;;;;12.85;38.15;96783.50;4196612;28;7735;-73
2023/03/16 15:26:35;;;;;;;;;;;;;;;12.83;38.06;96779.22;4194838;28;5862;-73
2023/03/16 15:28:38;;;;;;;;;;;;;;;12.83;38.26;96771.25;4202151;28;5742;-73
2023/03/16 15:30:42;;;;;;;;;;;;;;;12.82;38.14;96768.81;4202639;28;5696;-74
2023/03/16 15:32:45;;;;;;;;;;;;;;;12.84;38.19;96764.13;4202975;28;5765;-73
2023/03/16 15:34:48;;;;;;;;;;;;;;;12.86;38.25;96762.06;4202969;28;6387;-73
2023/03/16 15:36:52;;;;;;;;;;;;;;;12.88;38.03;96757.34;4202915;28;5797;-73
2023/03/16 15:38:56;;;;;;;;;;;;;;;12.88;37.92;96762.66;4202548;28;5694;-73
2023/03/16 15:41:00;;;;;;;;;;;;;;;12.89;37.85;96764.28;4202257;28;5805;-74
2023/03/16 15:43:03;;;;;;;;;;;;;;;12.89;37.95;96768.78;4202717;28;5701;-74
2023/03/16 15:45:12;;;;;;;;;;;;;;;12.91;37.65;96761.41;4201900;28;5691;-73
2023/03/16 15:47:15;;;;;;;;;;;;;;;12.93;37.38;96767.38;4196112;28;6469;-73
2023/03/16 15:49:18;;;;;;;;;;;;;;;12.91;37.23;96766.72;4197899;28;6510;-73
2023/03/16 15:51:24;;;;;;;;;;;;;;;12.91;37.35;96761.41;4195039;28;6380;-73
2023/03/16 15:53:30;;;;;;;;;;;;;;;12.92;37.34;96758.59;4200457;28;5693;-72
2023/03/16 15:55:39;;;;;;;;;;;;;;;12.92;37.09;96757.78;4196042;28;5698;-73
2023/03/16 15:57:42;;;;;;;;;;;;;;;12.92;37.40;96747.16;4200606;28;5782;-72
2023/03/16 15:59:46;;;;;;;;;;;;;;;12.92;37.26;96745.31;4200298;28;5715;-73
2023/03/16 16:01:51;;;;;;;;;;;;;;;12.94;37.22;96747.75;4200031;28;5693;-73
2023/03/16 16:03:55;;;;;;;;;;;;;;;12.95;36.99;96741.44;4201082;28;5773;-73
2023/03/16 16:05:58;;;;;;;;;;;;;;;12.97;36.98;96742.03;4201127;28;5872;-73
2023/03/16 16:08:02;;;;;;;;;;;;;;;12.99;36.87;96732.00;4194516;28;5897;-72
2023/03/16 16:10:06;;;;;;;;;;;;;;;13.00;36.64;96734.47;4200758;28;5698;-73
2023/03/16 16:12:13;;;;;;;;;;;;;;;13.02;36.91;96731.59;4200322;28;5800;-73
2023/03/16 16:14:22;;;;;;;;;;;;;;;13.01;36.85;96732.63;4201112;28;5808;-73
2023/03/16 16:16:27;;;;;;;;;;;;;;;13.01;36.73;96729.97;4200615;28;5805;-74
2023/03/16 16:18:35;;;;;;;;;;;;;;;12.99;36.54;96729.34;4200537;28;5686;-73
2023/03/16 16:20:38;;;;;;;;;;;;;;;12.97;36.83;96728.75;4200902;28;5722;-74
2023/03/16 16:22:41;;;;;;;;;;;;;;;12.96;36.43;96737.75;4200032;28;5670;-74
2023/03/16 16:24:44;;;;;;;;;;;;;;;12.94;36.44;96730.00;4200739;28;5776;-74
2023/03/16 16:26:48;;;;;;;;;;;;;;;12.93;36.27;96727.56;4193840;28;5682;-74
2023/03/16 16:28:58;;;;;;;;;;;;;;;12.92;36.22;96731.25;4200634;28;5694;-73
2023/03/16 16:31:01;;;;;;;;;;;;;;;12.91;36.25;96735.72;4199799;28;5781;-74
2023/03/16 16:33:23;;;;;;;;;;;;;;;12.91;36.01;96724.28;4200297;28;6441;-74
2023/03/16 16:35:28;;;;;;;;;;;;;;;12.90;36.11;96731.44;4197473;28;5701;-73
2023/03/16 16:37:32;;;;;;;;;;;;;;;12.90;36.03;96738.56;4200568;28;5722;-74
2023/03/16 16:39:34;;;;;;;;;;;;;;;12.90;36.04;96738.56;4198999;28;5773;-72
2023/03/16 16:41:39;;;;;;;;;;;;;;;12.91;35.97;96732.25;4199502;28;5706;-73
2023/03/16 16:43:44;;;;;;;;;;;;;;;12.91;35.94;96734.88;4190884;28;5769;-73
2023/03/16 16:45:49;;;;;;;;;;;;;;;12.90;35.90;96730.59;4199241;28;5804;-73
2023/03/16 16:47:54;;;;;;;;;;;;;;;12.91;35.75;96730.44;4199952;28;6377;-73
2023/03/16 16:49:57;;;;;;;;;;;;;;;12.91;35.71;96725.13;4200026;28;5796;-73
2023/03/16 16:52:00;;;;;;;;;;;;;;;12.92;35.75;96720.63;4199226;28;6006;-74
2023/03/16 16:54:14;;;;;;;;;;;;;;;12.92;35.70;96716.13;4198932;28;5686;-73
2023/03/16 16:56:20;;;;;;;;;;;;;;;12.94;35.75;96729.19;4199720;28;5690;-74
2023/03/16 16:58:23;;;;;;;;;;;;;;;12.95;35.62;96730.81;4196676;28;5834;-74
2023/03/16 17:00:28;;;;;;;;;;;;;;;12.96;35.53;96727.13;4198996;28;5897;-74
2023/03/16 17:02:41;;;;;;;;;;;;;;;12.96;35.80;96727.94;4199925;28;5927;-73
2023/03/16 17:04:44;;;;;;;;;;;;;;;12.97;35.60;96723.44;4192097;28;5778;-73
2023/03/16 17:06:47;;;;;;;;;;;;;;;12.98;35.79;96714.47;4199842;28;5678;-74
2023/03/16 17:08:51;;;;;;;;;;;;;;;12.97;35.57;96718.97;4199595;28;5693;-73
2023/03/16 17:10:54;;;;;;;;;;;;;;;12.98;35.60;96730.38;4199406;28;5172;-73
2023/03/16 17:12:57;;;;;;;;;;;;;;;12.95;35.48;96718.38;4198444;28;7726;-73
2023/03/16 17:15:00;;;;;;;;;;;;;;;12.96;35.38;96722.63;4199887;28;5816;-72
2023/03/16 17:17:11;;;;;;;;;;;;;;;12.96;35.41;96719.19;4199302;28;5690;-73
2023/03/16 17:19:20;;;;;;;;;;;;;;;12.93;35.47;96723.06;4199718;28;5801;-74
2023/03/16 17:21:27;;;;;;;;;;;;;;;12.92;35.49;96721.44;4197656;28;5802;-73
2023/03/16 17:23:33;;;;;;;;;;;;;;;12.90;35.37;96726.13;4196812;28;5750;-73
2023/03/16 17:25:36;;;;;;;;;;;;;;;12.90;35.28;96727.97;4197851;28;5697;-73
2023/03/16 17:27:39;;;;;;;;;;;;;;;12.87;35.58;96729.19;4198716;28;5694;-74